sensor_id;sensor_type;location;lat;lon;timestamp;P1;durP1;ratioP1;P2;durP2;ratioP2
1545;SDS011;766;51.502;9.752;2022-08-21T00:00:25;4.85;;;2.80;;
1545;SDS011;766;51.502;9.752;2022-08-21T00:03:05;5.78;;;2.90;;
1545;SDS011;766;51.502;9.752;2022-08-21T00:05:36;3.67;;;2.85;;
1545;SDS011;766;51.502;9.752;2022-08-21T00:08:14;6.43;;;2.67;;
1545;SDS011;766;51.502;9.752;2022-08-21T00:10:43;6.97;;;2.85;;
1545;SDS011;766;51.502;9.752;2022-08-21T00:13:15;8.60;;;3.00;;
1545;SDS011;766;51.502;9.752;2022-08-21T00:15:47;7.47;;;3.10;;
1545;SDS011;766;51.502;9.752;2022-08-21T00:18:18;7.47;;;2.83;;
1545;SDS011;766;51.502;9.752;2022-08-21T00:20:46;5.82;;;2.88;;
1545;SDS011;766;51.502;9.752;2022-08-21T00:23:18;3.60;;;2.55;;
1545;SDS011;766;51.502;9.752;2022-08-21T00:25:46;5.47;;;2.63;;
1545;SDS011;766;51.502;9.752;2022-08-21T00:28:15;5.20;;;2.92;;
1545;SDS011;766;51.502;9.752;2022-08-21T00:30:44;10.38;;;3.33;;
1545;SDS011;766;51.502;9.752;2022-08-21T00:33:12;5.60;;;3.03;;
1545;SDS011;766;51.502;9.752;2022-08-21T00:35:42;3.85;;;2.60;;
1545;SDS011;766;51.502;9.752;2022-08-21T00:38:11;3.95;;;2.60;;
1545;SDS011;766;51.502;9.752;2022-08-21T00:40:42;5.95;;;3.33;;
1545;SDS011;766;51.502;9.752;2022-08-21T00:43:15;4.90;;;2.72;;
1545;SDS011;766;51.502;9.752;2022-08-21T00:45:47;5.80;;;2.75;;
1545;SDS011;766;51.502;9.752;2022-08-21T00:48:16;9.02;;;3.08;;
1545;SDS011;766;51.502;9.752;2022-08-21T00:50:48;7.30;;;3.33;;
1545;SDS011;766;51.502;9.752;2022-08-21T00:53:21;7.28;;;2.85;;
1545;SDS011;766;51.502;9.752;2022-08-21T00:55:49;8.23;;;3.20;;
1545;SDS011;766;51.502;9.752;2022-08-21T00:58:21;5.72;;;3.38;;
1545;SDS011;766;51.502;9.752;2022-08-21T01:00:52;4.80;;;2.83;;
1545;SDS011;766;51.502;9.752;2022-08-21T01:03:22;17.98;;;3.38;;
1545;SDS011;766;51.502;9.752;2022-08-21T01:05:53;7.55;;;3.20;;
1545;SDS011;766;51.502;9.752;2022-08-21T01:08:21;10.85;;;3.08;;
1545;SDS011;766;51.502;9.752;2022-08-21T01:10:50;4.95;;;2.95;;
1545;SDS011;766;51.502;9.752;2022-08-21T01:13:20;6.05;;;2.80;;
1545;SDS011;766;51.502;9.752;2022-08-21T01:15:51;6.50;;;2.90;;
1545;SDS011;766;51.502;9.752;2022-08-21T01:18:21;4.88;;;3.10;;
1545;SDS011;766;51.502;9.752;2022-08-21T01:20:59;7.13;;;3.00;;
1545;SDS011;766;51.502;9.752;2022-08-21T01:23:31;6.63;;;2.65;;
1545;SDS011;766;51.502;9.752;2022-08-21T01:26:00;5.05;;;2.80;;
1545;SDS011;766;51.502;9.752;2022-08-21T01:28:29;4.38;;;2.78;;
1545;SDS011;766;51.502;9.752;2022-08-21T01:31:02;7.30;;;2.78;;
1545;SDS011;766;51.502;9.752;2022-08-21T01:33:33;5.53;;;2.38;;
1545;SDS011;766;51.502;9.752;2022-08-21T01:36:03;5.25;;;2.58;;
1545;SDS011;766;51.502;9.752;2022-08-21T01:38:31;5.63;;;2.70;;
1545;SDS011;766;51.502;9.752;2022-08-21T01:41:00;8.02;;;2.58;;
1545;SDS011;766;51.502;9.752;2022-08-21T01:43:28;7.47;;;2.50;;
1545;SDS011;766;51.502;9.752;2022-08-21T01:46:05;7.68;;;2.60;;
1545;SDS011;766;51.502;9.752;2022-08-21T01:48:39;6.50;;;2.80;;
1545;SDS011;766;51.502;9.752;2022-08-21T01:51:08;4.28;;;2.35;;
1545;SDS011;766;51.502;9.752;2022-08-21T01:53:38;6.85;;;2.47;;
1545;SDS011;766;51.502;9.752;2022-08-21T01:56:08;7.75;;;2.13;;
1545;SDS011;766;51.502;9.752;2022-08-21T01:58:40;6.25;;;2.53;;
1545;SDS011;766;51.502;9.752;2022-08-21T02:01:11;14.68;;;2.50;;
1545;SDS011;766;51.502;9.752;2022-08-21T02:03:42;5.10;;;2.83;;
1545;SDS011;766;51.502;9.752;2022-08-21T02:06:13;8.38;;;2.85;;
1545;SDS011;766;51.502;9.752;2022-08-21T02:08:44;4.05;;;2.40;;
1545;SDS011;766;51.502;9.752;2022-08-21T02:11:14;4.80;;;2.20;;
1545;SDS011;766;51.502;9.752;2022-08-21T02:13:43;7.82;;;2.60;;
1545;SDS011;766;51.502;9.752;2022-08-21T02:16:14;3.25;;;2.33;;
1545;SDS011;766;51.502;9.752;2022-08-21T02:18:45;4.55;;;2.00;;
1545;SDS011;766;51.502;9.752;2022-08-21T02:21:17;5.25;;;2.28;;
1545;SDS011;766;51.502;9.752;2022-08-21T02:23:45;5.07;;;2.47;;
1545;SDS011;766;51.502;9.752;2022-08-21T02:26:14;4.57;;;2.15;;
1545;SDS011;766;51.502;9.752;2022-08-21T02:28:42;5.05;;;2.50;;
1545;SDS011;766;51.502;9.752;2022-08-21T02:31:11;7.57;;;2.53;;
1545;SDS011;766;51.502;9.752;2022-08-21T02:33:39;5.30;;;2.50;;
1545;SDS011;766;51.502;9.752;2022-08-21T02:36:08;5.28;;;2.83;;
1545;SDS011;766;51.502;9.752;2022-08-21T02:38:39;5.20;;;2.53;;
1545;SDS011;766;51.502;9.752;2022-08-21T02:41:12;3.90;;;2.30;;
1545;SDS011;766;51.502;9.752;2022-08-21T02:43:42;7.38;;;2.53;;
1545;SDS011;766;51.502;9.752;2022-08-21T02:46:12;5.78;;;2.63;;
1545;SDS011;766;51.502;9.752;2022-08-21T02:48:43;5.28;;;2.83;;
1545;SDS011;766;51.502;9.752;2022-08-21T02:51:13;7.28;;;2.90;;
1545;SDS011;766;51.502;9.752;2022-08-21T02:53:45;4.32;;;2.20;;
1545;SDS011;766;51.502;9.752;2022-08-21T02:56:16;4.88;;;2.50;;
1545;SDS011;766;51.502;9.752;2022-08-21T02:58:47;5.68;;;2.30;;
1545;SDS011;766;51.502;9.752;2022-08-21T03:01:19;8.65;;;2.72;;
1545;SDS011;766;51.502;9.752;2022-08-21T03:03:48;4.65;;;2.38;;
1545;SDS011;766;51.502;9.752;2022-08-21T03:06:17;4.03;;;2.50;;
1545;SDS011;766;51.502;9.752;2022-08-21T03:08:49;4.55;;;2.40;;
1545;SDS011;766;51.502;9.752;2022-08-21T03:11:17;4.90;;;2.17;;
1545;SDS011;766;51.502;9.752;2022-08-21T03:13:45;5.82;;;2.60;;
1545;SDS011;766;51.502;9.752;2022-08-21T03:16:14;5.78;;;2.65;;
1545;SDS011;766;51.502;9.752;2022-08-21T03:18:44;8.65;;;3.30;;
1545;SDS011;766;51.502;9.752;2022-08-21T03:21:13;6.60;;;3.03;;
1545;SDS011;766;51.502;9.752;2022-08-21T03:23:42;7.65;;;3.28;;
1545;SDS011;766;51.502;9.752;2022-08-21T03:26:14;7.47;;;3.10;;
1545;SDS011;766;51.502;9.752;2022-08-21T03:28:45;7.72;;;2.97;;
1545;SDS011;766;51.502;9.752;2022-08-21T03:31:13;7.03;;;2.85;;
1545;SDS011;766;51.502;9.752;2022-08-21T03:33:42;6.43;;;3.15;;
1545;SDS011;766;51.502;9.752;2022-08-21T03:36:11;7.97;;;3.63;;
1545;SDS011;766;51.502;9.752;2022-08-21T03:38:40;7.68;;;3.40;;
1545;SDS011;766;51.502;9.752;2022-08-21T03:41:08;5.78;;;3.47;;
1545;SDS011;766;51.502;9.752;2022-08-21T03:43:38;7.07;;;2.92;;
1545;SDS011;766;51.502;9.752;2022-08-21T03:46:07;5.32;;;3.45;;
1545;SDS011;766;51.502;9.752;2022-08-21T03:48:36;8.80;;;3.38;;
1545;SDS011;766;51.502;9.752;2022-08-21T03:51:05;9.13;;;3.45;;
1545;SDS011;766;51.502;9.752;2022-08-21T03:53:34;6.45;;;3.03;;
1545;SDS011;766;51.502;9.752;2022-08-21T03:56:03;4.90;;;3.38;;
1545;SDS011;766;51.502;9.752;2022-08-21T03:58:35;8.60;;;3.22;;
1545;SDS011;766;51.502;9.752;2022-08-21T04:01:05;6.55;;;3.22;;
1545;SDS011;766;51.502;9.752;2022-08-21T04:03:36;5.45;;;3.25;;
1545;SDS011;766;51.502;9.752;2022-08-21T04:06:05;6.28;;;3.58;;
1545;SDS011;766;51.502;9.752;2022-08-21T04:08:34;6.47;;;3.13;;
1545;SDS011;766;51.502;9.752;2022-08-21T04:11:02;7.05;;;3.25;;
1545;SDS011;766;51.502;9.752;2022-08-21T04:13:31;7.70;;;3.90;;
1545;SDS011;766;51.502;9.752;2022-08-21T04:16:00;5.95;;;3.20;;
1545;SDS011;766;51.502;9.752;2022-08-21T04:18:31;7.00;;;3.47;;
1545;SDS011;766;51.502;9.752;2022-08-21T04:20:59;7.75;;;3.33;;
1545;SDS011;766;51.502;9.752;2022-08-21T04:23:30;6.95;;;2.83;;
1545;SDS011;766;51.502;9.752;2022-08-21T04:25:58;7.30;;;2.95;;
1545;SDS011;766;51.502;9.752;2022-08-21T04:28:27;9.52;;;3.38;;
1545;SDS011;766;51.502;9.752;2022-08-21T04:30:56;3.33;;;3.03;;
1545;SDS011;766;51.502;9.752;2022-08-21T04:33:29;6.97;;;2.95;;
1545;SDS011;766;51.502;9.752;2022-08-21T04:35:57;6.25;;;3.03;;
1545;SDS011;766;51.502;9.752;2022-08-21T04:38:29;5.90;;;3.40;;
1545;SDS011;766;51.502;9.752;2022-08-21T04:41:03;7.20;;;3.10;;
1545;SDS011;766;51.502;9.752;2022-08-21T04:43:32;6.80;;;3.08;;
1545;SDS011;766;51.502;9.752;2022-08-21T04:46:01;6.78;;;3.60;;
1545;SDS011;766;51.502;9.752;2022-08-21T04:48:31;9.80;;;3.83;;
1545;SDS011;766;51.502;9.752;2022-08-21T04:51:00;5.63;;;3.25;;
1545;SDS011;766;51.502;9.752;2022-08-21T04:53:34;7.47;;;4.35;;
1545;SDS011;766;51.502;9.752;2022-08-21T04:56:06;11.35;;;6.18;;
1545;SDS011;766;51.502;9.752;2022-08-21T04:58:39;8.55;;;6.22;;
1545;SDS011;766;51.502;9.752;2022-08-21T05:01:12;7.75;;;6.18;;
1545;SDS011;766;51.502;9.752;2022-08-21T05:03:44;12.05;;;6.45;;
1545;SDS011;766;51.502;9.752;2022-08-21T05:06:15;9.02;;;5.82;;
1545;SDS011;766;51.502;9.752;2022-08-21T05:08:46;12.60;;;6.03;;
1545;SDS011;766;51.502;9.752;2022-08-21T05:11:15;8.45;;;5.57;;
1545;SDS011;766;51.502;9.752;2022-08-21T05:13:44;11.45;;;6.10;;
1545;SDS011;766;51.502;9.752;2022-08-21T05:16:19;12.70;;;5.85;;
1545;SDS011;766;51.502;9.752;2022-08-21T05:19:04;8.18;;;5.55;;
1545;SDS011;766;51.502;9.752;2022-08-21T05:21:33;8.10;;;5.63;;
1545;SDS011;766;51.502;9.752;2022-08-21T05:24:06;7.65;;;5.85;;
1545;SDS011;766;51.502;9.752;2022-08-21T05:26:34;9.23;;;6.00;;
1545;SDS011;766;51.502;9.752;2022-08-21T05:29:12;11.18;;;6.28;;
1545;SDS011;766;51.502;9.752;2022-08-21T05:31:42;12.63;;;6.38;;
1545;SDS011;766;51.502;9.752;2022-08-21T05:34:11;9.38;;;6.45;;
1545;SDS011;766;51.502;9.752;2022-08-21T05:36:42;9.63;;;6.13;;
1545;SDS011;766;51.502;9.752;2022-08-21T05:39:10;12.82;;;6.78;;
1545;SDS011;766;51.502;9.752;2022-08-21T05:41:39;8.02;;;6.05;;
1545;SDS011;766;51.502;9.752;2022-08-21T05:44:08;9.93;;;7.50;;
1545;SDS011;766;51.502;9.752;2022-08-21T05:46:37;12.10;;;6.45;;
1545;SDS011;766;51.502;9.752;2022-08-21T05:49:05;8.70;;;5.78;;
1545;SDS011;766;51.502;9.752;2022-08-21T05:51:35;10.23;;;7.00;;
1545;SDS011;766;51.502;9.752;2022-08-21T05:54:03;7.60;;;6.55;;
1545;SDS011;766;51.502;9.752;2022-08-21T05:56:32;10.05;;;7.30;;
1545;SDS011;766;51.502;9.752;2022-08-21T05:59:02;9.02;;;7.15;;
1545;SDS011;766;51.502;9.752;2022-08-21T06:01:34;11.02;;;7.25;;
1545;SDS011;766;51.502;9.752;2022-08-21T06:04:03;14.35;;;6.93;;
1545;SDS011;766;51.502;9.752;2022-08-21T06:06:32;8.80;;;6.60;;
1545;SDS011;766;51.502;9.752;2022-08-21T06:09:02;14.52;;;7.95;;
1545;SDS011;766;51.502;9.752;2022-08-21T06:11:31;13.55;;;7.75;;
1545;SDS011;766;51.502;9.752;2022-08-21T06:14:00;10.40;;;7.38;;
1545;SDS011;766;51.502;9.752;2022-08-21T06:16:29;9.38;;;6.45;;
1545;SDS011;766;51.502;9.752;2022-08-21T06:18:57;13.80;;;6.82;;
1545;SDS011;766;51.502;9.752;2022-08-21T06:21:28;13.70;;;6.72;;
1545;SDS011;766;51.502;9.752;2022-08-21T06:23:58;10.73;;;6.68;;
1545;SDS011;766;51.502;9.752;2022-08-21T06:26:27;8.23;;;6.63;;
1545;SDS011;766;51.502;9.752;2022-08-21T06:28:57;14.82;;;7.65;;
1545;SDS011;766;51.502;9.752;2022-08-21T06:31:27;14.63;;;8.07;;
1545;SDS011;766;51.502;9.752;2022-08-21T06:33:56;15.68;;;8.27;;
1545;SDS011;766;51.502;9.752;2022-08-21T06:36:24;12.48;;;8.88;;
1545;SDS011;766;51.502;9.752;2022-08-21T06:38:53;13.82;;;8.50;;
1545;SDS011;766;51.502;9.752;2022-08-21T06:41:24;13.35;;;8.23;;
1545;SDS011;766;51.502;9.752;2022-08-21T06:43:53;12.07;;;8.13;;
1545;SDS011;766;51.502;9.752;2022-08-21T06:46:22;11.52;;;8.35;;
1545;SDS011;766;51.502;9.752;2022-08-21T06:48:52;10.70;;;7.60;;
1545;SDS011;766;51.502;9.752;2022-08-21T06:51:21;10.70;;;6.70;;
1545;SDS011;766;51.502;9.752;2022-08-21T06:53:49;10.70;;;6.65;;
1545;SDS011;766;51.502;9.752;2022-08-21T06:56:17;10.40;;;5.78;;
1545;SDS011;766;51.502;9.752;2022-08-21T06:58:47;10.45;;;5.47;;
1545;SDS011;766;51.502;9.752;2022-08-21T07:01:16;9.75;;;5.90;;
1545;SDS011;766;51.502;9.752;2022-08-21T07:03:52;12.13;;;6.22;;
1545;SDS011;766;51.502;9.752;2022-08-21T07:06:21;11.10;;;5.90;;
1545;SDS011;766;51.502;9.752;2022-08-21T07:08:49;8.77;;;5.28;;
1545;SDS011;766;51.502;9.752;2022-08-21T07:11:18;14.25;;;5.57;;
1545;SDS011;766;51.502;9.752;2022-08-21T07:13:50;9.25;;;5.07;;
1545;SDS011;766;51.502;9.752;2022-08-21T07:16:20;8.65;;;5.20;;
1545;SDS011;766;51.502;9.752;2022-08-21T07:18:49;13.68;;;5.40;;
1545;SDS011;766;51.502;9.752;2022-08-21T07:21:20;10.52;;;5.10;;
1545;SDS011;766;51.502;9.752;2022-08-21T07:23:52;11.00;;;4.75;;
1545;SDS011;766;51.502;9.752;2022-08-21T07:26:21;9.20;;;5.05;;
1545;SDS011;766;51.502;9.752;2022-08-21T07:28:52;7.50;;;4.82;;
1545;SDS011;766;51.502;9.752;2022-08-21T07:31:21;8.65;;;4.97;;
1545;SDS011;766;51.502;9.752;2022-08-21T07:33:51;7.30;;;4.20;;
1545;SDS011;766;51.502;9.752;2022-08-21T07:36:22;6.45;;;4.25;;
1545;SDS011;766;51.502;9.752;2022-08-21T07:38:50;9.02;;;3.85;;
1545;SDS011;766;51.502;9.752;2022-08-21T07:41:19;11.82;;;5.43;;
1545;SDS011;766;51.502;9.752;2022-08-21T07:43:49;8.77;;;4.93;;
1545;SDS011;766;51.502;9.752;2022-08-21T07:46:20;8.32;;;4.68;;
1545;SDS011;766;51.502;9.752;2022-08-21T07:48:48;6.63;;;4.55;;
1545;SDS011;766;51.502;9.752;2022-08-21T07:51:20;6.57;;;3.83;;
1545;SDS011;766;51.502;9.752;2022-08-21T07:53:52;7.38;;;5.03;;
1545;SDS011;766;51.502;9.752;2022-08-21T07:56:21;5.30;;;3.95;;
1545;SDS011;766;51.502;9.752;2022-08-21T07:58:50;9.68;;;4.45;;
1545;SDS011;766;51.502;9.752;2022-08-21T08:01:19;10.30;;;4.80;;
1545;SDS011;766;51.502;9.752;2022-08-21T08:03:48;7.30;;;4.32;;
1545;SDS011;766;51.502;9.752;2022-08-21T08:06:17;7.38;;;4.65;;
1545;SDS011;766;51.502;9.752;2022-08-21T08:08:45;8.00;;;4.18;;
1545;SDS011;766;51.502;9.752;2022-08-21T08:11:14;6.35;;;3.42;;
1545;SDS011;766;51.502;9.752;2022-08-21T08:13:43;6.72;;;3.80;;
1545;SDS011;766;51.502;9.752;2022-08-21T08:16:16;6.63;;;3.80;;
1545;SDS011;766;51.502;9.752;2022-08-21T08:18:44;6.55;;;3.30;;
1545;SDS011;766;51.502;9.752;2022-08-21T08:21:13;7.45;;;4.15;;
1545;SDS011;766;51.502;9.752;2022-08-21T08:23:42;6.80;;;4.00;;
1545;SDS011;766;51.502;9.752;2022-08-21T08:26:11;5.88;;;3.38;;
1545;SDS011;766;51.502;9.752;2022-08-21T08:28:39;5.40;;;3.05;;
1545;SDS011;766;51.502;9.752;2022-08-21T08:31:08;7.30;;;3.85;;
1545;SDS011;766;51.502;9.752;2022-08-21T08:33:37;4.47;;;2.50;;
1545;SDS011;766;51.502;9.752;2022-08-21T08:36:08;7.55;;;3.28;;
1545;SDS011;766;51.502;9.752;2022-08-21T08:38:41;5.15;;;2.83;;
1545;SDS011;766;51.502;9.752;2022-08-21T08:41:11;9.57;;;4.07;;
1545;SDS011;766;51.502;9.752;2022-08-21T08:43:42;7.47;;;3.85;;
1545;SDS011;766;51.502;9.752;2022-08-21T08:46:18;7.50;;;3.30;;
1545;SDS011;766;51.502;9.752;2022-08-21T08:48:53;9.38;;;3.22;;
1545;SDS011;766;51.502;9.752;2022-08-21T08:51:27;14.32;;;3.00;;
1545;SDS011;766;51.502;9.752;2022-08-21T08:54:05;6.40;;;2.75;;
1545;SDS011;766;51.502;9.752;2022-08-21T08:56:38;9.00;;;3.67;;
1545;SDS011;766;51.502;9.752;2022-08-21T08:59:07;7.63;;;2.88;;
1545;SDS011;766;51.502;9.752;2022-08-21T09:01:41;10.23;;;3.40;;
1545;SDS011;766;51.502;9.752;2022-08-21T09:04:11;10.80;;;2.90;;
1545;SDS011;766;51.502;9.752;2022-08-21T09:06:49;9.77;;;3.25;;
1545;SDS011;766;51.502;9.752;2022-08-21T09:09:34;7.80;;;3.53;;
1545;SDS011;766;51.502;9.752;2022-08-21T09:12:17;6.53;;;3.00;;
1545;SDS011;766;51.502;9.752;2022-08-21T09:14:58;6.57;;;2.58;;
1545;SDS011;766;51.502;9.752;2022-08-21T09:17:37;9.80;;;3.17;;
1545;SDS011;766;51.502;9.752;2022-08-21T09:20:20;7.93;;;2.95;;
1545;SDS011;766;51.502;9.752;2022-08-21T09:23:05;6.95;;;3.10;;
1545;SDS011;766;51.502;9.752;2022-08-21T09:25:51;8.70;;;3.17;;
1545;SDS011;766;51.502;9.752;2022-08-21T09:28:26;11.70;;;3.00;;
1545;SDS011;766;51.502;9.752;2022-08-21T09:31:02;10.05;;;3.25;;
1545;SDS011;766;51.502;9.752;2022-08-21T09:33:34;7.22;;;3.40;;
1545;SDS011;766;51.502;9.752;2022-08-21T09:36:04;10.65;;;2.97;;
1545;SDS011;766;51.502;9.752;2022-08-21T09:38:34;5.40;;;2.25;;
1545;SDS011;766;51.502;9.752;2022-08-21T09:41:05;6.95;;;2.78;;
1545;SDS011;766;51.502;9.752;2022-08-21T09:43:51;7.55;;;2.60;;
1545;SDS011;766;51.502;9.752;2022-08-21T09:46:21;6.93;;;2.40;;
1545;SDS011;766;51.502;9.752;2022-08-21T09:48:51;8.70;;;2.90;;
1545;SDS011;766;51.502;9.752;2022-08-21T09:51:24;5.30;;;2.00;;
1545;SDS011;766;51.502;9.752;2022-08-21T09:53:57;5.65;;;2.58;;
1545;SDS011;766;51.502;9.752;2022-08-21T09:56:40;6.32;;;2.85;;
1545;SDS011;766;51.502;9.752;2022-08-21T09:59:39;7.88;;;2.58;;
1545;SDS011;766;51.502;9.752;2022-08-21T10:02:20;7.60;;;2.28;;
1545;SDS011;766;51.502;9.752;2022-08-21T10:04:52;6.35;;;2.40;;
1545;SDS011;766;51.502;9.752;2022-08-21T10:07:25;7.60;;;2.88;;
1545;SDS011;766;51.502;9.752;2022-08-21T10:09:59;8.32;;;2.97;;
1545;SDS011;766;51.502;9.752;2022-08-21T10:12:33;6.45;;;3.40;;
1545;SDS011;766;51.502;9.752;2022-08-21T10:15:13;8.48;;;3.35;;
1545;SDS011;766;51.502;9.752;2022-08-21T10:17:52;9.90;;;2.75;;
1545;SDS011;766;51.502;9.752;2022-08-21T10:20:33;6.35;;;2.80;;
1545;SDS011;766;51.502;9.752;2022-08-21T10:23:14;9.88;;;2.53;;
1545;SDS011;766;51.502;9.752;2022-08-21T10:25:55;6.10;;;2.63;;
1545;SDS011;766;51.502;9.752;2022-08-21T10:28:40;8.23;;;2.72;;
1545;SDS011;766;51.502;9.752;2022-08-21T10:31:20;6.72;;;2.47;;
1545;SDS011;766;51.502;9.752;2022-08-21T10:34:00;5.95;;;2.55;;
1545;SDS011;766;51.502;9.752;2022-08-21T10:36:50;7.55;;;2.85;;
1545;SDS011;766;51.502;9.752;2022-08-21T10:39:39;6.40;;;2.60;;
1545;SDS011;766;51.502;9.752;2022-08-21T10:42:21;8.30;;;2.83;;
1545;SDS011;766;51.502;9.752;2022-08-21T10:45:09;4.80;;;2.55;;
1545;SDS011;766;51.502;9.752;2022-08-21T10:47:46;6.15;;;3.08;;
1545;SDS011;766;51.502;9.752;2022-08-21T10:50:25;5.80;;;2.50;;
1545;SDS011;766;51.502;9.752;2022-08-21T10:53:05;8.77;;;2.45;;
1545;SDS011;766;51.502;9.752;2022-08-21T10:55:46;4.15;;;2.05;;
1545;SDS011;766;51.502;9.752;2022-08-21T10:58:22;8.15;;;2.83;;
1545;SDS011;766;51.502;9.752;2022-08-21T11:00:55;6.00;;;2.83;;
1545;SDS011;766;51.502;9.752;2022-08-21T11:03:29;6.03;;;2.70;;
1545;SDS011;766;51.502;9.752;2022-08-21T11:06:02;6.22;;;2.30;;
1545;SDS011;766;51.502;9.752;2022-08-21T11:08:39;7.35;;;2.40;;
1545;SDS011;766;51.502;9.752;2022-08-21T11:11:15;4.50;;;2.10;;
1545;SDS011;766;51.502;9.752;2022-08-21T11:13:49;8.38;;;2.47;;
1545;SDS011;766;51.502;9.752;2022-08-21T11:16:23;4.22;;;2.10;;
1545;SDS011;766;51.502;9.752;2022-08-21T11:18:59;4.20;;;2.13;;
1545;SDS011;766;51.502;9.752;2022-08-21T11:21:35;4.03;;;1.80;;
1545;SDS011;766;51.502;9.752;2022-08-21T11:24:12;3.65;;;1.88;;
1545;SDS011;766;51.502;9.752;2022-08-21T11:26:59;5.25;;;2.40;;
1545;SDS011;766;51.502;9.752;2022-08-21T11:29:33;5.63;;;2.60;;
1545;SDS011;766;51.502;9.752;2022-08-21T11:32:23;4.43;;;1.80;;
1545;SDS011;766;51.502;9.752;2022-08-21T11:35:00;3.88;;;2.00;;
1545;SDS011;766;51.502;9.752;2022-08-21T11:37:43;4.20;;;2.20;;
1545;SDS011;766;51.502;9.752;2022-08-21T11:40:31;5.30;;;2.00;;
1545;SDS011;766;51.502;9.752;2022-08-21T11:43:13;3.88;;;2.00;;
1545;SDS011;766;51.502;9.752;2022-08-21T11:45:50;5.50;;;2.22;;
1545;SDS011;766;51.502;9.752;2022-08-21T11:48:25;3.92;;;2.33;;
1545;SDS011;766;51.502;9.752;2022-08-21T11:51:05;2.97;;;1.95;;
1545;SDS011;766;51.502;9.752;2022-08-21T11:53:40;3.72;;;2.10;;
1545;SDS011;766;51.502;9.752;2022-08-21T11:56:22;5.80;;;2.47;;
1545;SDS011;766;51.502;9.752;2022-08-21T11:58:56;4.07;;;2.03;;
1545;SDS011;766;51.502;9.752;2022-08-21T12:01:31;6.97;;;2.22;;
1545;SDS011;766;51.502;9.752;2022-08-21T12:04:05;4.70;;;1.88;;
1545;SDS011;766;51.502;9.752;2022-08-21T12:06:39;6.15;;;2.33;;
1545;SDS011;766;51.502;9.752;2022-08-21T12:09:10;4.55;;;2.10;;
1545;SDS011;766;51.502;9.752;2022-08-21T12:12:02;5.00;;;1.90;;
1545;SDS011;766;51.502;9.752;2022-08-21T12:14:39;5.05;;;1.80;;
1545;SDS011;766;51.502;9.752;2022-08-21T12:17:19;5.70;;;1.80;;
1545;SDS011;766;51.502;9.752;2022-08-21T12:19:56;3.25;;;1.85;;
1545;SDS011;766;51.502;9.752;2022-08-21T12:22:35;3.33;;;1.95;;
1545;SDS011;766;51.502;9.752;2022-08-21T12:25:08;4.97;;;1.83;;
1545;SDS011;766;51.502;9.752;2022-08-21T12:27:45;4.75;;;2.03;;
1545;SDS011;766;51.502;9.752;2022-08-21T12:30:22;3.88;;;1.63;;
1545;SDS011;766;51.502;9.752;2022-08-21T12:33:01;2.53;;;2.13;;
1545;SDS011;766;51.502;9.752;2022-08-21T12:35:32;4.53;;;2.17;;
1545;SDS011;766;51.502;9.752;2022-08-21T12:38:07;5.13;;;1.90;;
1545;SDS011;766;51.502;9.752;2022-08-21T12:40:43;4.53;;;2.05;;
1545;SDS011;766;51.502;9.752;2022-08-21T12:43:18;3.17;;;2.00;;
1545;SDS011;766;51.502;9.752;2022-08-21T12:45:50;3.47;;;1.88;;
1545;SDS011;766;51.502;9.752;2022-08-21T12:48:20;2.65;;;1.98;;
1545;SDS011;766;51.502;9.752;2022-08-21T12:50:55;2.38;;;1.65;;
1545;SDS011;766;51.502;9.752;2022-08-21T12:53:28;5.47;;;1.80;;
1545;SDS011;766;51.502;9.752;2022-08-21T12:56:01;8.02;;;1.95;;
1545;SDS011;766;51.502;9.752;2022-08-21T12:58:39;2.38;;;1.98;;
1545;SDS011;766;51.502;9.752;2022-08-21T13:01:15;4.53;;;2.00;;
1545;SDS011;766;51.502;9.752;2022-08-21T13:03:50;3.30;;;1.67;;
1545;SDS011;766;51.502;9.752;2022-08-21T13:06:31;4.28;;;1.65;;
1545;SDS011;766;51.502;9.752;2022-08-21T13:09:05;6.00;;;2.17;;
1545;SDS011;766;51.502;9.752;2022-08-21T13:11:38;5.38;;;2.05;;
1545;SDS011;766;51.502;9.752;2022-08-21T13:14:10;3.92;;;1.65;;
1545;SDS011;766;51.502;9.752;2022-08-21T13:16:47;2.42;;;1.55;;
1545;SDS011;766;51.502;9.752;2022-08-21T13:19:22;3.20;;;1.50;;
1545;SDS011;766;51.502;9.752;2022-08-21T13:21:52;3.20;;;1.75;;
1545;SDS011;766;51.502;9.752;2022-08-21T13:24:21;2.88;;;1.40;;
1545;SDS011;766;51.502;9.752;2022-08-21T13:27:21;4.18;;;1.83;;
1545;SDS011;766;51.502;9.752;2022-08-21T13:30:03;3.88;;;1.83;;
1545;SDS011;766;51.502;9.752;2022-08-21T13:32:36;4.60;;;1.85;;
1545;SDS011;766;51.502;9.752;2022-08-21T13:35:10;2.88;;;1.77;;
1545;SDS011;766;51.502;9.752;2022-08-21T13:37:44;3.53;;;1.77;;
1545;SDS011;766;51.502;9.752;2022-08-21T13:40:15;4.10;;;1.38;;
1545;SDS011;766;51.502;9.752;2022-08-21T13:42:46;5.50;;;1.77;;
1545;SDS011;766;51.502;9.752;2022-08-21T13:45:18;5.18;;;1.90;;
1545;SDS011;766;51.502;9.752;2022-08-21T13:47:52;4.90;;;1.80;;
1545;SDS011;766;51.502;9.752;2022-08-21T13:50:24;2.80;;;1.45;;
1545;SDS011;766;51.502;9.752;2022-08-21T13:52:58;5.90;;;1.80;;
1545;SDS011;766;51.502;9.752;2022-08-21T13:55:35;6.05;;;1.90;;
1545;SDS011;766;51.502;9.752;2022-08-21T13:58:06;5.38;;;1.75;;
1545;SDS011;766;51.502;9.752;2022-08-21T14:00:35;4.35;;;1.80;;
1545;SDS011;766;51.502;9.752;2022-08-21T14:03:26;3.65;;;1.80;;
1545;SDS011;766;51.502;9.752;2022-08-21T14:06:00;4.25;;;1.63;;
1545;SDS011;766;51.502;9.752;2022-08-21T14:08:31;4.15;;;1.90;;
1545;SDS011;766;51.502;9.752;2022-08-21T14:11:02;3.65;;;1.52;;
1545;SDS011;766;51.502;9.752;2022-08-21T14:13:37;2.95;;;1.83;;
1545;SDS011;766;51.502;9.752;2022-08-21T14:16:12;5.35;;;1.70;;
1545;SDS011;766;51.502;9.752;2022-08-21T14:18:46;2.83;;;1.90;;
1545;SDS011;766;51.502;9.752;2022-08-21T14:21:27;3.78;;;1.40;;
1545;SDS011;766;51.502;9.752;2022-08-21T14:23:59;2.38;;;1.40;;
1545;SDS011;766;51.502;9.752;2022-08-21T14:26:34;3.22;;;1.30;;
1545;SDS011;766;51.502;9.752;2022-08-21T14:29:06;2.50;;;1.30;;
1545;SDS011;766;51.502;9.752;2022-08-21T14:31:36;4.57;;;1.27;;
1545;SDS011;766;51.502;9.752;2022-08-21T14:34:11;2.72;;;1.40;;
1545;SDS011;766;51.502;9.752;2022-08-21T14:36:45;3.88;;;1.23;;
1545;SDS011;766;51.502;9.752;2022-08-21T14:39:15;3.90;;;1.45;;
1545;SDS011;766;51.502;9.752;2022-08-21T14:41:44;1.42;;;1.30;;
1545;SDS011;766;51.502;9.752;2022-08-21T14:44:14;2.40;;;1.17;;
1545;SDS011;766;51.502;9.752;2022-08-21T14:46:45;6.00;;;1.40;;
1545;SDS011;766;51.502;9.752;2022-08-21T14:49:25;3.40;;;1.45;;
1545;SDS011;766;51.502;9.752;2022-08-21T14:51:57;2.95;;;1.35;;
1545;SDS011;766;51.502;9.752;2022-08-21T14:54:26;4.15;;;1.40;;
1545;SDS011;766;51.502;9.752;2022-08-21T14:56:58;6.15;;;1.58;;
1545;SDS011;766;51.502;9.752;2022-08-21T14:59:28;3.63;;;1.23;;
1545;SDS011;766;51.502;9.752;2022-08-21T15:01:59;2.90;;;1.23;;
1545;SDS011;766;51.502;9.752;2022-08-21T15:04:31;4.72;;;1.33;;
1545;SDS011;766;51.502;9.752;2022-08-21T15:07:00;2.80;;;1.40;;
1545;SDS011;766;51.502;9.752;2022-08-21T15:09:28;2.60;;;1.25;;
1545;SDS011;766;51.502;9.752;2022-08-21T15:11:57;4.05;;;1.50;;
1545;SDS011;766;51.502;9.752;2022-08-21T15:14:28;3.05;;;1.10;;
1545;SDS011;766;51.502;9.752;2022-08-21T15:16:58;2.42;;;1.10;;
1545;SDS011;766;51.502;9.752;2022-08-21T15:19:27;2.25;;;1.10;;
1545;SDS011;766;51.502;9.752;2022-08-21T15:21:57;3.55;;;1.42;;
1545;SDS011;766;51.502;9.752;2022-08-21T15:24:26;2.78;;;1.20;;
1545;SDS011;766;51.502;9.752;2022-08-21T15:26:55;1.80;;;1.30;;
1545;SDS011;766;51.502;9.752;2022-08-21T15:29:27;2.97;;;1.45;;
1545;SDS011;766;51.502;9.752;2022-08-21T15:31:59;3.55;;;1.45;;
1545;SDS011;766;51.502;9.752;2022-08-21T15:34:30;5.28;;;1.40;;
1545;SDS011;766;51.502;9.752;2022-08-21T15:36:59;3.47;;;1.20;;
1545;SDS011;766;51.502;9.752;2022-08-21T15:39:28;3.45;;;1.33;;
1545;SDS011;766;51.502;9.752;2022-08-21T15:42:03;4.30;;;1.30;;
1545;SDS011;766;51.502;9.752;2022-08-21T15:44:36;11.15;;;1.75;;
1545;SDS011;766;51.502;9.752;2022-08-21T15:47:08;5.13;;;1.77;;
1545;SDS011;766;51.502;9.752;2022-08-21T15:49:40;5.25;;;1.75;;
1545;SDS011;766;51.502;9.752;2022-08-21T15:52:12;8.00;;;1.52;;
1545;SDS011;766;51.502;9.752;2022-08-21T15:54:41;7.43;;;1.30;;
1545;SDS011;766;51.502;9.752;2022-08-21T15:57:10;6.30;;;1.67;;
1545;SDS011;766;51.502;9.752;2022-08-21T15:59:42;3.85;;;1.60;;